Emelle, Alabama
Current Conditions -  °F | °C
As of 10:56 PM on Sunday 19 Oct 2014 (Local Time) from KNMM Reporting Station
Clear Clear  
Wind Chill: 50°   Ceiling: Unl
Heat Index: 50°   Visibility: 10mi
Dew Point: 47°   Wind: 0mph
Humidity: 89%   Direction: NA
Pressure: 30.11"   Gusts: NA
Location:  32.73°N, 88.31°W
Report Text: KNMM 200356Z AUTO 00000KT 10SM CLR 10/08 A3011 RMK AO2 SLP204 T01000083 $
Loading
Personal Weather Stations






























Interactive Weather Map New forecast layout! Learn more

10-Day Weather Forecast

Advertisements
Track Severe Weather on mobile